createdAt,value
2023-05-15T00:01:19.673Z,7.58
2023-05-15T00:03:50.820Z,7.17
2023-05-15T00:06:20.361Z,6.83
2023-05-15T00:08:51.714Z,6.87
2023-05-15T00:11:21.601Z,8.05
2023-05-15T00:13:51.405Z,6.30
2023-05-15T00:16:23.282Z,7.03
2023-05-15T00:18:52.104Z,6.93
2023-05-15T00:21:25.938Z,7.33
2023-05-15T00:23:54.644Z,7.43
2023-05-15T00:26:25.883Z,7.23
2023-05-15T00:28:54.881Z,7.85
2023-05-15T00:31:25.400Z,6.62
2023-05-15T00:33:56.213Z,6.53
2023-05-15T00:36:25.969Z,6.70
2023-05-15T00:38:54.867Z,6.55
2023-05-15T00:41:26.958Z,6.37
2023-05-15T00:44:00.385Z,7.57
2023-05-15T00:46:31.251Z,6.78
2023-05-15T00:49:00.830Z,6.37
2023-05-15T00:51:29.567Z,6.50
2023-05-15T00:54:02.745Z,6.72
2023-05-15T00:56:33.039Z,6.85
2023-05-15T00:59:06.475Z,7.28
2023-05-15T01:01:35.731Z,6.85
2023-05-15T01:04:05.096Z,7.72
2023-05-15T01:06:33.797Z,7.58
2023-05-15T01:09:04.444Z,7.42
2023-05-15T01:11:35.623Z,8.17
2023-05-15T01:14:06.874Z,7.63
2023-05-15T01:16:36.507Z,8.18
2023-05-15T01:19:06.665Z,8.07
2023-05-15T01:21:38.359Z,8.73
2023-05-15T01:24:22.176Z,8.50
2023-05-15T01:27:08.300Z,8.63
2023-05-15T01:29:52.022Z,8.25
2023-05-15T01:32:32.608Z,8.37
2023-05-15T01:35:16.498Z,9.08
2023-05-15T01:37:50.067Z,8.50
2023-05-15T01:40:21.784Z,8.45
2023-05-15T01:43:02.368Z,8.48
2023-05-15T01:45:32.781Z,8.93
2023-05-15T01:48:03.247Z,8.25
2023-05-15T01:50:34.060Z,8.93
2023-05-15T01:53:04.467Z,8.45
2023-05-15T01:55:35.653Z,8.65
2023-05-15T01:58:05.623Z,8.40
2023-05-15T02:00:35.600Z,8.67
2023-05-15T02:03:06.951Z,9.18
2023-05-15T02:05:36.802Z,9.88
2023-05-15T02:08:06.569Z,9.63
2023-05-15T02:10:36.777Z,9.28
2023-05-15T02:13:06.720Z,10.00
2023-05-15T02:15:36.789Z,10.00
2023-05-15T02:18:05.865Z,9.50
2023-05-15T02:20:34.604Z,9.13
2023-05-15T02:23:03.340Z,8.67
2023-05-15T02:25:54.561Z,9.33
2023-05-15T02:28:31.719Z,8.67
2023-05-15T02:31:03.501Z,8.77
2023-05-15T02:33:35.234Z,9.17
2023-05-15T02:36:10.124Z,8.40
2023-05-15T02:38:54.152Z,8.30
2023-05-15T02:41:24.149Z,8.43
2023-05-15T02:43:55.678Z,8.80
2023-05-15T02:46:25.876Z,9.43
2023-05-15T02:48:55.954Z,10.13
2023-05-15T02:51:25.005Z,9.20
2023-05-15T02:53:53.844Z,10.00
2023-05-15T02:56:22.713Z,9.60
2023-05-15T02:58:51.475Z,10.10
2023-05-15T03:01:20.268Z,9.17
2023-05-15T03:03:49.030Z,9.43
2023-05-15T03:06:20.982Z,8.60
2023-05-15T03:08:49.716Z,9.37
2023-05-15T03:11:19.355Z,8.97
2023-05-15T03:13:49.236Z,9.57
2023-05-15T03:16:17.973Z,9.73
2023-05-15T03:18:46.767Z,9.20
2023-05-15T03:21:15.495Z,10.00
2023-05-15T03:23:44.471Z,9.30
2023-05-15T03:26:13.197Z,9.03
2023-05-15T03:28:42.469Z,10.73
2023-05-15T03:31:11.335Z,9.03
2023-05-15T03:33:40.109Z,9.10
2023-05-15T03:36:08.958Z,10.68
2023-05-15T03:38:38.106Z,10.95
2023-05-15T03:41:06.805Z,10.68
2023-05-15T03:43:35.551Z,10.20
2023-05-15T03:46:04.258Z,10.90
2023-05-15T03:48:34.901Z,10.40
2023-05-15T03:51:03.636Z,11.73
2023-05-15T03:53:32.393Z,12.47
2023-05-15T03:56:02.472Z,11.87
2023-05-15T03:58:36.683Z,12.37
2023-05-15T04:01:05.437Z,11.57
2023-05-15T04:03:34.568Z,11.95
2023-05-15T04:06:03.313Z,11.65
2023-05-15T04:08:31.986Z,12.88
2023-05-15T04:11:02.177Z,11.97
2023-05-15T04:13:31.007Z,12.65
2023-05-15T04:16:00.048Z,13.32
2023-05-15T04:18:29.854Z,13.20
2023-05-15T04:20:58.630Z,13.13
2023-05-15T04:23:28.155Z,13.03
2023-05-15T04:25:57.025Z,12.53
2023-05-15T04:28:28.674Z,12.58
2023-05-15T04:30:58.762Z,11.97
2023-05-15T04:33:27.407Z,13.15
2023-05-15T04:35:56.368Z,12.85
2023-05-15T04:38:28.378Z,12.55
2023-05-15T04:41:21.760Z,12.78
2023-05-15T04:43:54.218Z,13.83
2023-05-15T04:46:23.004Z,14.13
2023-05-15T04:48:53.356Z,14.73
2023-05-15T04:51:26.367Z,15.90
2023-05-15T04:54:33.529Z,15.53
2023-05-15T04:56:36.381Z,14.53
2023-05-15T04:59:05.290Z,14.75
2023-05-15T05:01:34.056Z,15.70
2023-05-15T05:04:02.885Z,14.40
2023-05-15T05:06:33.130Z,14.43
2023-05-15T05:09:01.903Z,13.32
2023-05-15T05:11:33.605Z,13.05
2023-05-15T05:14:02.498Z,14.13
2023-05-15T05:16:32.909Z,14.03
2023-05-15T05:19:01.859Z,14.00
2023-05-15T05:21:33.095Z,15.72
2023-05-15T05:24:02.008Z,14.58
2023-05-15T05:26:33.675Z,15.10
2023-05-15T05:29:02.367Z,14.43
2023-05-15T05:31:33.005Z,14.45
2023-05-15T05:34:03.371Z,14.95
2023-05-15T05:36:32.279Z,13.58
2023-05-15T05:39:04.827Z,13.98
2023-05-15T05:41:33.629Z,15.10
2023-05-15T05:44:03.931Z,14.53
2023-05-15T05:46:34.565Z,14.20
2023-05-15T05:49:03.825Z,14.98
2023-05-15T05:51:33.643Z,14.90
2023-05-15T05:54:05.669Z,15.32
2023-05-15T05:56:36.172Z,15.63
2023-05-15T05:59:07.645Z,15.93
2023-05-15T06:01:36.736Z,14.80
2023-05-15T06:04:05.794Z,14.93
2023-05-15T06:06:43.111Z,15.65
2023-05-15T06:09:12.074Z,14.45
2023-05-15T06:11:48.468Z,16.90
2023-05-15T06:14:19.528Z,16.82
2023-05-15T06:16:50.978Z,16.95
2023-05-15T06:19:19.786Z,16.75
2023-05-15T06:21:50.236Z,17.87
2023-05-15T06:24:21.904Z,17.70
2023-05-15T06:26:52.369Z,17.75
2023-05-15T06:29:21.520Z,17.80
2023-05-15T06:31:53.940Z,18.00
2023-05-15T06:34:22.742Z,16.67
2023-05-15T06:36:52.614Z,15.78
2023-05-15T06:39:22.641Z,16.10
2023-05-15T06:42:15.417Z,16.37
2023-05-15T06:44:48.063Z,14.98
2023-05-15T06:47:20.257Z,14.13
2023-05-15T06:49:49.070Z,14.80
2023-05-15T06:52:17.931Z,14.20
2023-05-15T06:54:48.356Z,12.35
2023-05-15T06:57:19.795Z,13.35
2023-05-15T06:59:50.066Z,13.22
2023-05-15T07:02:20.339Z,13.65
2023-05-15T07:05:10.823Z,13.15
2023-05-15T07:07:41.751Z,12.30
2023-05-15T07:10:10.947Z,14.70
2023-05-15T07:12:41.261Z,13.80
2023-05-15T07:15:10.520Z,14.87
2023-05-15T07:17:39.269Z,15.08
2023-05-15T07:20:09.843Z,12.93
2023-05-15T07:22:55.104Z,12.70
2023-05-15T07:25:11.823Z,13.68
2023-05-15T07:27:40.646Z,13.20
2023-05-15T07:30:11.555Z,12.78
2023-05-15T07:32:40.211Z,13.55
2023-05-15T07:35:10.822Z,13.22
2023-05-15T07:37:44.165Z,18.00
2023-05-15T07:40:13.132Z,12.23
2023-05-15T07:42:41.955Z,14.63
2023-05-15T07:45:11.318Z,15.13
2023-05-15T07:47:44.117Z,18.92
2023-05-15T07:50:18.747Z,28.85
2023-05-15T07:52:49.217Z,19.17
2023-05-15T07:55:18.051Z,64.77
2023-05-15T08:00:22.157Z,44.75
2023-05-15T08:02:51.244Z,27.98
2023-05-15T08:05:21.556Z,25.10
2023-05-15T08:07:51.929Z,21.25
2023-05-15T08:10:22.279Z,19.40
2023-05-15T08:12:52.749Z,26.00
2023-05-15T08:15:21.414Z,18.92
2023-05-15T08:17:50.343Z,17.95
2023-05-15T08:20:22.186Z,18.65
2023-05-15T08:22:50.845Z,21.65
2023-05-15T08:25:19.575Z,21.52
2023-05-15T08:27:48.304Z,18.60
2023-05-15T08:30:18.617Z,17.35
2023-05-15T08:32:48.924Z,17.02
2023-05-15T08:35:17.809Z,18.70
2023-05-15T08:37:48.523Z,24.70
2023-05-15T08:42:48.939Z,20.08
2023-05-15T08:45:19.296Z,20.00
2023-05-15T08:47:48.124Z,18.00
2023-05-15T08:50:18.486Z,19.00
2023-05-15T08:52:48.730Z,18.50
2023-05-15T08:55:18.306Z,19.05
2023-05-15T08:57:48.766Z,19.82
2023-05-15T09:00:20.196Z,16.37
2023-05-15T09:02:49.166Z,14.70
2023-05-15T09:05:19.982Z,15.70
2023-05-15T09:07:50.370Z,14.83
2023-05-15T09:10:20.705Z,19.65
2023-05-15T09:12:52.341Z,15.23
2023-05-15T09:15:25.583Z,17.60
2023-05-15T09:17:57.472Z,15.75
2023-05-15T09:20:28.611Z,15.23
2023-05-15T09:23:05.527Z,17.05
2023-05-15T09:25:49.152Z,22.37
2023-05-15T09:28:29.488Z,15.90
2023-05-15T09:31:03.759Z,22.85
2023-05-15T09:33:42.262Z,24.37
2023-05-15T09:36:18.515Z,16.65
2023-05-15T09:38:49.669Z,18.48
2023-05-15T09:41:22.930Z,15.85
2023-05-15T09:43:58.566Z,17.12
2023-05-15T09:46:34.338Z,15.83
2023-05-15T09:49:06.304Z,13.50
2023-05-15T09:51:40.053Z,15.08
2023-05-15T09:54:13.651Z,14.58
2023-05-15T09:56:47.439Z,15.08
2023-05-15T10:01:32.881Z,13.80
2023-05-15T10:02:40.596Z,13.45
2023-05-15T10:05:09.797Z,13.48
2023-05-15T10:07:38.650Z,21.37
2023-05-15T10:10:08.171Z,13.45
2023-05-15T10:12:37.064Z,17.48
2023-05-15T10:15:06.278Z,16.17
2023-05-15T10:17:37.123Z,13.00
2023-05-15T10:20:08.212Z,20.15
2023-05-15T10:22:39.746Z,19.95
2023-05-15T10:25:31.348Z,15.70
2023-05-15T10:28:01.393Z,21.87
2023-05-15T10:30:33.502Z,24.25
2023-05-15T10:33:03.403Z,13.15
2023-05-15T10:35:33.351Z,20.35
2023-05-15T10:38:09.146Z,11.55
2023-05-15T10:46:43.631Z,12.45
2023-05-15T10:55:10.847Z,60.83
2023-05-15T11:00:48.860Z,22.40
2023-05-15T11:04:04.733Z,14.53
2023-05-15T11:06:56.924Z,46.58
2023-05-15T11:22:52.487Z,21.87
2023-05-15T11:32:43.462Z,14.45
2023-05-15T11:39:27.492Z,13.88
2023-05-15T11:48:02.837Z,12.47
2023-05-15T11:51:18.722Z,12.43
2023-05-15T11:54:49.401Z,12.78
2023-05-15T12:00:32.080Z,12.05
2023-05-15T12:03:50.623Z,12.25
2023-05-15T12:06:04.150Z,12.47
2023-05-15T12:08:45.420Z,12.88
2023-05-15T12:17:38.141Z,16.85
2023-05-15T12:20:43.656Z,13.53
2023-05-15T12:23:19.790Z,12.80
2023-05-15T12:26:05.676Z,12.55
2023-05-15T12:28:45.459Z,12.33
2023-05-15T12:34:43.736Z,12.70
2023-05-15T12:40:13.612Z,43.45
2023-05-15T12:43:01.984Z,30.45
2023-05-15T12:45:34.184Z,13.58
2023-05-15T12:48:04.856Z,41.42
2023-05-15T12:50:38.782Z,17.15
2023-05-15T12:53:12.301Z,23.38
2023-05-15T12:55:41.936Z,10.03
2023-05-15T12:58:17.051Z,9.90
2023-05-15T13:00:54.455Z,12.45
2023-05-15T13:03:25.504Z,16.67
2023-05-15T13:05:58.941Z,11.80
2023-05-15T13:08:36.697Z,12.50
2023-05-15T13:12:35.283Z,9.90
2023-05-15T13:17:04.859Z,11.05
2023-05-15T13:19:38.034Z,9.98
2023-05-15T13:22:10.653Z,10.25
2023-05-15T13:24:52.980Z,10.48
2023-05-15T13:27:21.916Z,12.35
2023-05-15T13:29:53.552Z,9.73
2023-05-15T13:32:22.375Z,10.58
2023-05-15T13:34:56.694Z,11.05
2023-05-15T13:37:26.168Z,9.55
2023-05-15T13:40:06.888Z,10.50
2023-05-15T13:42:55.554Z,10.43
2023-05-15T13:45:27.317Z,11.63
2023-05-15T13:48:40.303Z,12.05
2023-05-15T13:51:14.590Z,13.95
2023-05-15T13:53:50.716Z,17.12
2023-05-15T13:56:44.758Z,10.88
2023-05-15T13:59:16.855Z,14.80
2023-05-15T14:02:09.694Z,10.98
2023-05-15T14:11:28.732Z,11.35
2023-05-15T14:20:13.708Z,10.45
2023-05-15T14:23:21.570Z,11.45
2023-05-15T14:29:03.031Z,10.68
2023-05-15T14:31:43.052Z,8.13
2023-05-15T14:43:14.667Z,7.20
2023-05-15T14:45:54.476Z,8.70
2023-05-15T14:55:18.321Z,7.80
2023-05-15T14:58:03.083Z,8.45
2023-05-15T15:00:28.816Z,6.22
2023-05-15T15:06:48.213Z,8.50
2023-05-15T15:09:19.506Z,7.95
2023-05-15T15:12:22.842Z,5.50
2023-05-15T15:15:05.046Z,10.15
2023-05-15T15:17:36.428Z,7.83
2023-05-15T15:20:06.379Z,6.62
2023-05-15T15:23:06.898Z,6.05
2023-05-15T15:25:40.098Z,4.95
2023-05-15T15:28:12.914Z,7.33
2023-05-15T15:30:51.562Z,5.75
2023-05-15T15:36:38.685Z,6.22
2023-05-15T15:42:40.838Z,7.22
2023-05-15T15:48:55.772Z,7.53
2023-05-15T15:54:46.055Z,7.75
2023-05-15T15:57:39.131Z,8.13
2023-05-15T16:00:11.875Z,7.55
2023-05-15T16:03:06.027Z,7.45
2023-05-15T16:05:45.807Z,8.18
2023-05-15T16:08:21.175Z,10.43
2023-05-15T16:17:33.562Z,26.68
2023-05-15T16:26:52.972Z,52.15
2023-05-15T16:29:36.495Z,14.98
2023-05-15T16:32:32.150Z,12.40
2023-05-15T16:39:21.445Z,13.20
2023-05-15T16:41:19.010Z,12.33
2023-05-15T16:44:01.902Z,16.75
2023-05-15T16:46:35.971Z,17.45
2023-05-15T16:49:06.087Z,18.02
2023-05-15T16:51:40.110Z,18.65
2023-05-15T16:54:14.204Z,21.77
2023-05-15T16:56:45.093Z,14.63
2023-05-15T17:02:22.895Z,12.90
2023-05-15T17:05:12.081Z,16.57
2023-05-15T17:07:30.267Z,14.93
2023-05-15T17:10:06.192Z,15.48
2023-05-15T17:13:09.415Z,15.60
2023-05-15T17:15:44.245Z,18.10
2023-05-15T17:18:14.787Z,16.02
2023-05-15T17:20:45.423Z,19.65
2023-05-15T17:23:21.712Z,15.98
2023-05-15T17:26:07.712Z,21.12
2023-05-15T17:28:46.907Z,24.98
2023-05-15T17:34:08.262Z,20.62
2023-05-15T17:36:37.341Z,18.52
2023-05-15T17:39:07.853Z,20.57
2023-05-15T17:41:38.488Z,28.52
2023-05-15T17:44:11.238Z,28.27
2023-05-15T17:46:41.764Z,24.72
2023-05-15T17:49:12.706Z,18.00
2023-05-15T17:51:43.112Z,19.12
2023-05-15T17:54:18.835Z,16.60
2023-05-15T17:56:54.228Z,18.67
2023-05-15T17:59:42.160Z,17.07
2023-05-15T18:02:19.589Z,18.02
2023-05-15T18:04:50.313Z,18.05
2023-05-15T18:07:21.005Z,19.55
2023-05-15T18:10:02.872Z,19.45
2023-05-15T18:12:27.572Z,20.37
2023-05-15T18:14:58.190Z,20.40
2023-05-15T18:17:38.456Z,19.67
2023-05-15T18:23:14.803Z,18.52
2023-05-15T18:25:44.320Z,17.90
2023-05-15T18:28:21.024Z,20.45
2023-05-15T18:30:57.180Z,18.98
2023-05-15T18:33:35.421Z,22.07
2023-05-15T18:36:28.306Z,26.12
2023-05-15T18:38:59.230Z,21.37
2023-05-15T18:41:28.321Z,19.10
2023-05-15T18:44:09.010Z,25.10
2023-05-15T18:46:38.020Z,27.77
2023-05-15T18:49:08.549Z,24.23
2023-05-15T18:51:38.888Z,22.58
2023-05-15T18:54:09.201Z,22.42
2023-05-15T18:56:41.795Z,19.92
2023-05-15T19:00:33.941Z,25.00
2023-05-15T19:01:57.156Z,21.80
2023-05-15T19:04:36.266Z,22.02
2023-05-15T19:07:18.820Z,19.50
2023-05-15T19:09:51.418Z,19.70
2023-05-15T19:12:40.987Z,21.05
2023-05-15T19:15:05.368Z,20.55
2023-05-15T19:23:50.747Z,20.25
2023-05-15T19:26:24.613Z,23.75
2023-05-15T19:29:21.797Z,22.17
2023-05-15T19:35:35.227Z,22.70
2023-05-15T19:44:02.668Z,22.25
2023-05-15T19:46:36.231Z,25.55
2023-05-15T19:52:22.546Z,25.02
2023-05-15T19:54:51.710Z,23.98
2023-05-15T19:57:20.584Z,23.55
2023-05-15T19:59:50.658Z,23.73
2023-05-15T20:02:27.059Z,23.25
2023-05-15T20:05:14.326Z,22.65
2023-05-15T20:07:59.250Z,23.47
2023-05-15T20:13:48.252Z,41.25
2023-05-15T20:16:20.330Z,32.15
2023-05-15T20:19:15.211Z,33.67
2023-05-15T20:21:52.662Z,31.77
2023-05-15T20:24:33.637Z,39.30
2023-05-15T20:29:54.312Z,28.00
2023-05-15T20:32:43.530Z,21.80
2023-05-15T20:35:00.843Z,30.68
2023-05-15T20:37:35.610Z,24.87
2023-05-15T20:40:07.658Z,28.57
2023-05-15T20:42:40.344Z,28.85
2023-05-15T20:45:11.318Z,31.95
2023-05-15T20:48:00.053Z,27.27
2023-05-15T20:50:30.597Z,25.17
2023-05-15T20:53:02.681Z,30.82
2023-05-15T20:55:31.557Z,25.30
2023-05-15T20:58:06.611Z,40.23
2023-05-15T21:00:35.574Z,22.95
2023-05-15T21:03:09.333Z,29.37
2023-05-15T21:05:57.874Z,24.30
2023-05-15T21:08:31.942Z,23.80
2023-05-15T21:11:00.716Z,30.50
2023-05-15T21:13:30.966Z,27.22
2023-05-15T21:18:41.554Z,55.40
2023-05-15T21:21:10.498Z,37.50
2023-05-15T21:23:48.910Z,27.52
2023-05-15T21:26:24.889Z,28.12
2023-05-15T21:28:53.391Z,37.63
2023-05-15T21:31:22.267Z,29.02
2023-05-15T21:33:51.036Z,22.60
2023-05-15T21:36:20.144Z,30.10
2023-05-15T21:38:48.966Z,22.87
2023-05-15T21:41:17.973Z,26.40
2023-05-15T21:43:46.656Z,27.55
2023-05-15T21:46:15.446Z,24.63
2023-05-15T21:48:44.548Z,24.05
2023-05-15T21:51:17.867Z,42.98
2023-05-15T21:53:50.857Z,29.23
2023-05-15T21:56:22.710Z,23.02
2023-05-15T21:58:53.416Z,21.00
2023-05-15T22:01:23.811Z,23.45
2023-05-15T22:03:52.911Z,20.27
2023-05-15T22:06:27.749Z,22.15
2023-05-15T22:08:56.822Z,22.10
2023-05-15T22:11:26.345Z,21.50
2023-05-15T22:13:55.142Z,26.15
2023-05-15T22:16:24.034Z,21.37
2023-05-15T22:18:54.004Z,22.32
2023-05-15T22:21:22.849Z,20.23
2023-05-15T22:23:51.486Z,20.15
2023-05-15T22:26:20.914Z,21.62
2023-05-15T22:28:51.229Z,21.17
2023-05-15T22:31:19.829Z,18.45
2023-05-15T22:33:48.478Z,17.70
2023-05-15T22:36:17.498Z,17.98
2023-05-15T22:38:46.675Z,16.97
2023-05-15T22:41:17.054Z,17.65
2023-05-15T22:43:45.888Z,16.37
2023-05-15T22:46:16.175Z,17.17
2023-05-15T22:48:45.025Z,17.15
2023-05-15T22:51:15.357Z,16.40
2023-05-15T22:53:44.168Z,16.40
2023-05-15T22:56:12.811Z,16.10
2023-05-15T22:58:41.421Z,15.85
2023-05-15T23:01:10.757Z,16.45
2023-05-15T23:03:39.606Z,16.27
2023-05-15T23:06:09.907Z,16.15
2023-05-15T23:08:38.554Z,16.65
2023-05-15T23:11:07.218Z,16.82
2023-05-15T23:13:35.867Z,15.13
2023-05-15T23:16:04.815Z,14.83
2023-05-15T23:18:35.465Z,14.68
2023-05-15T23:21:06.993Z,16.05
2023-05-15T23:23:35.770Z,14.90
2023-05-15T23:26:07.721Z,14.95
2023-05-15T23:28:36.324Z,15.03
2023-05-15T23:31:05.111Z,14.75
2023-05-15T23:33:34.322Z,16.27
2023-05-15T23:36:03.060Z,15.63
2023-05-15T23:38:31.633Z,15.80
2023-05-15T23:41:00.400Z,15.05
2023-05-15T23:43:29.748Z,14.63
2023-05-15T23:45:58.950Z,15.63
2023-05-15T23:48:28.106Z,14.83
2023-05-15T23:50:56.935Z,14.45
2023-05-15T23:53:25.621Z,14.80
2023-05-15T23:55:54.314Z,15.55
2023-05-15T23:58:23.728Z,17.07
